createdAt,value
2023-05-19T00:00:24.623Z,591.00
2023-05-19T00:01:24.717Z,593.00
2023-05-19T00:02:24.847Z,594.00
2023-05-19T00:03:24.893Z,592.00
2023-05-19T00:04:24.917Z,596.00
2023-05-19T00:05:25.030Z,592.00
2023-05-19T00:06:25.137Z,593.00
2023-05-19T00:07:25.160Z,594.00
2023-05-19T00:08:25.248Z,594.00
2023-05-19T00:09:25.325Z,595.00
2023-05-19T00:10:25.407Z,597.00
2023-05-19T00:11:25.491Z,592.00
2023-05-19T00:12:25.569Z,593.00
2023-05-19T00:13:25.652Z,594.00
2023-05-19T00:14:25.733Z,594.00
2023-05-19T00:15:25.817Z,597.00
2023-05-19T00:16:25.931Z,592.00
2023-05-19T00:17:25.992Z,597.00
2023-05-19T00:18:26.033Z,593.00
2023-05-19T00:19:26.289Z,591.00
2023-05-19T00:20:26.215Z,593.00
2023-05-19T00:21:26.270Z,601.00
2023-05-19T00:22:26.352Z,588.00
2023-05-19T00:23:26.430Z,593.00
2023-05-19T00:24:26.510Z,591.00
2023-05-19T00:25:26.593Z,594.00
2023-05-19T00:26:26.677Z,596.00
2023-05-19T00:27:26.736Z,596.00
2023-05-19T00:28:26.815Z,588.00
2023-05-19T00:29:26.891Z,595.00
2023-05-19T00:30:26.974Z,588.00
2023-05-19T00:31:27.611Z,591.00
2023-05-19T00:32:27.156Z,595.00
2023-05-19T00:33:27.220Z,591.00
2023-05-19T00:34:27.286Z,595.00
2023-05-19T00:35:27.350Z,592.00
2023-05-19T00:36:27.428Z,596.00
2023-05-19T00:37:27.504Z,595.00
2023-05-19T00:38:27.584Z,594.00
2023-05-19T00:39:27.669Z,592.00
2023-05-19T00:40:27.749Z,595.00
2023-05-19T00:41:27.843Z,587.00
2023-05-19T00:42:27.910Z,602.00
2023-05-19T00:43:27.998Z,594.00
2023-05-19T00:44:28.074Z,597.00
2023-05-19T00:45:28.157Z,597.00
2023-05-19T00:46:28.277Z,596.00
2023-05-19T00:47:28.366Z,596.00
2023-05-19T00:48:28.394Z,593.00
2023-05-19T00:49:28.484Z,590.00
2023-05-19T00:50:28.566Z,601.00
2023-05-19T00:51:28.643Z,593.00
2023-05-19T00:52:28.710Z,593.00
2023-05-19T00:53:28.782Z,590.00
2023-05-19T00:54:28.845Z,594.00
2023-05-19T00:55:28.914Z,594.00
2023-05-19T00:56:28.992Z,595.00
2023-05-19T00:57:29.056Z,597.00
2023-05-19T00:58:29.144Z,593.00
2023-05-19T00:59:29.194Z,594.00
2023-05-19T01:00:29.320Z,598.00
2023-05-19T01:01:29.402Z,588.00
2023-05-19T01:02:29.427Z,595.00
2023-05-19T01:03:29.569Z,595.00
2023-05-19T01:04:29.570Z,592.00
2023-05-19T01:05:29.653Z,591.00
2023-05-19T01:06:29.742Z,596.00
2023-05-19T01:07:29.811Z,597.00
2023-05-19T01:08:29.891Z,591.00
2023-05-19T01:09:29.976Z,594.00
2023-05-19T01:10:30.214Z,599.00
2023-05-19T01:11:30.145Z,591.00
2023-05-19T01:12:30.224Z,594.00
2023-05-19T01:13:30.314Z,594.00
2023-05-19T01:14:30.377Z,595.00
2023-05-19T01:15:30.462Z,597.00
2023-05-19T01:16:30.591Z,593.00
2023-05-19T01:17:30.651Z,594.00
2023-05-19T01:18:30.705Z,595.00
2023-05-19T01:19:30.777Z,595.00
2023-05-19T01:20:30.999Z,593.00
2023-05-19T01:21:30.935Z,598.00
2023-05-19T01:22:31.037Z,599.00
2023-05-19T01:23:31.102Z,591.00
2023-05-19T01:24:31.173Z,596.00
2023-05-19T01:25:31.256Z,594.00
2023-05-19T01:26:31.350Z,597.00
2023-05-19T01:27:31.422Z,593.00
2023-05-19T01:28:31.510Z,592.00
2023-05-19T01:29:31.579Z,593.00
2023-05-19T01:30:31.905Z,597.00
2023-05-19T01:31:31.803Z,588.00
2023-05-19T01:32:31.839Z,594.00
2023-05-19T01:33:31.899Z,601.00
2023-05-19T01:34:31.959Z,590.00
2023-05-19T01:35:32.049Z,599.00
2023-05-19T01:36:32.133Z,587.00
2023-05-19T01:37:32.281Z,595.00
2023-05-19T01:38:32.280Z,593.00
2023-05-19T01:39:32.370Z,596.00
2023-05-19T01:40:32.649Z,593.00
2023-05-19T01:41:32.511Z,594.00
2023-05-19T01:42:32.590Z,594.00
2023-05-19T01:43:32.651Z,590.00
2023-05-19T01:44:32.740Z,598.00
2023-05-19T01:45:32.832Z,597.00
2023-05-19T01:46:32.963Z,596.00
2023-05-19T01:47:32.999Z,594.00
2023-05-19T01:48:33.079Z,597.00
2023-05-19T01:49:33.127Z,594.00
2023-05-19T01:50:33.464Z,597.00
2023-05-19T01:51:33.348Z,594.00
2023-05-19T01:52:33.379Z,594.00
2023-05-19T01:53:33.478Z,598.00
2023-05-19T01:54:33.532Z,593.00
2023-05-19T01:55:33.615Z,595.00
2023-05-19T01:56:33.703Z,592.00
2023-05-19T01:57:33.842Z,596.00
2023-05-19T01:58:33.864Z,597.00
2023-05-19T01:59:33.947Z,593.00
2023-05-19T02:00:34.240Z,592.00
2023-05-19T02:01:34.195Z,593.00
2023-05-19T02:02:34.214Z,591.00
2023-05-19T02:03:34.269Z,595.00
2023-05-19T02:04:34.400Z,593.00
2023-05-19T02:05:34.436Z,593.00
2023-05-19T02:06:34.525Z,590.00
2023-05-19T02:07:34.624Z,596.00
2023-05-19T02:08:34.660Z,591.00
2023-05-19T02:09:34.759Z,593.00
2023-05-19T02:10:34.829Z,599.00
2023-05-19T02:11:34.911Z,592.00
2023-05-19T02:12:34.987Z,593.00
2023-05-19T02:13:35.069Z,597.00
2023-05-19T02:14:35.144Z,598.00
2023-05-19T02:15:35.235Z,593.00
2023-05-19T02:16:35.285Z,594.00
2023-05-19T02:17:35.398Z,596.00
2023-05-19T02:18:35.456Z,592.00
2023-05-19T02:19:35.531Z,589.00
2023-05-19T02:20:35.638Z,595.00
2023-05-19T02:21:35.695Z,593.00
2023-05-19T02:22:35.772Z,592.00
2023-05-19T02:23:35.845Z,589.00
2023-05-19T02:24:35.938Z,591.00
2023-05-19T02:25:36.010Z,595.00
2023-05-19T02:26:36.094Z,594.00
2023-05-19T02:27:36.171Z,597.00
2023-05-19T02:28:36.259Z,593.00
2023-05-19T02:29:36.337Z,595.00
2023-05-19T02:30:36.420Z,593.00
2023-05-19T02:31:36.521Z,595.00
2023-05-19T02:32:36.668Z,591.00
2023-05-19T02:33:36.658Z,594.00
2023-05-19T02:34:36.745Z,587.00
2023-05-19T02:35:36.828Z,593.00
2023-05-19T02:36:36.926Z,593.00
2023-05-19T02:37:36.997Z,595.00
2023-05-19T02:38:37.086Z,597.00
2023-05-19T02:39:37.171Z,587.00
2023-05-19T02:40:37.274Z,594.00
2023-05-19T02:41:37.332Z,595.00
2023-05-19T02:42:37.420Z,593.00
2023-05-19T02:43:37.496Z,593.00
2023-05-19T02:44:37.581Z,589.00
2023-05-19T02:45:37.791Z,592.00
2023-05-19T02:46:37.815Z,595.00
2023-05-19T02:47:37.890Z,597.00
2023-05-19T02:48:37.909Z,595.00
2023-05-19T02:49:38.031Z,592.00
2023-05-19T02:50:38.091Z,592.00
2023-05-19T02:51:38.206Z,595.00
2023-05-19T02:52:38.267Z,594.00
2023-05-19T02:53:38.339Z,590.00
2023-05-19T02:54:38.421Z,596.00
2023-05-19T02:55:38.515Z,600.00
2023-05-19T02:56:38.598Z,595.00
2023-05-19T02:57:38.682Z,589.00
2023-05-19T02:58:38.766Z,590.00
2023-05-19T02:59:38.840Z,595.00
2023-05-19T03:00:38.980Z,593.00
2023-05-19T03:01:39.133Z,587.00
2023-05-19T03:02:39.169Z,585.00
2023-05-19T03:03:39.263Z,592.00
2023-05-19T03:04:39.275Z,591.00
2023-05-19T03:05:39.345Z,595.00
2023-05-19T03:06:39.461Z,591.00
2023-05-19T03:07:39.521Z,589.00
2023-05-19T03:08:42.308Z,594.00
2023-05-19T03:09:39.631Z,591.00
2023-05-19T03:10:39.649Z,597.00
2023-05-19T03:11:39.668Z,593.00
2023-05-19T03:12:39.676Z,595.00
2023-05-19T03:13:39.692Z,593.00
2023-05-19T03:14:39.705Z,593.00
2023-05-19T03:15:39.725Z,602.00
2023-05-19T03:16:39.846Z,591.00
2023-05-19T03:17:39.872Z,592.00
2023-05-19T03:18:39.803Z,589.00
2023-05-19T03:19:39.790Z,592.00
2023-05-19T03:20:41.568Z,595.00
2023-05-19T03:21:39.827Z,594.00
2023-05-19T03:22:39.865Z,592.00
2023-05-19T03:23:39.875Z,594.00
2023-05-19T03:24:39.890Z,591.00
2023-05-19T03:25:39.912Z,593.00
2023-05-19T03:26:39.940Z,593.00
2023-05-19T03:27:39.951Z,595.00
2023-05-19T03:28:39.972Z,592.00
2023-05-19T03:29:40.067Z,592.00
2023-05-19T03:30:40.149Z,595.00
2023-05-19T03:31:40.233Z,596.00
2023-05-19T03:32:40.420Z,592.00
2023-05-19T03:33:40.436Z,595.00
2023-05-19T03:34:40.471Z,594.00
2023-05-19T03:35:40.561Z,591.00
2023-05-19T03:36:41.135Z,591.00
2023-05-19T03:37:40.732Z,588.00
2023-05-19T03:38:40.819Z,586.00
2023-05-19T03:39:40.901Z,593.00
2023-05-19T03:40:40.988Z,590.00
2023-05-19T03:41:41.062Z,594.00
2023-05-19T03:42:41.165Z,590.00
2023-05-19T03:43:41.221Z,591.00
2023-05-19T03:44:41.325Z,593.00
2023-05-19T03:45:41.400Z,596.00
2023-05-19T03:46:41.461Z,591.00
2023-05-19T03:47:41.579Z,590.00
2023-05-19T03:48:41.612Z,591.00
2023-05-19T03:49:41.677Z,587.00
2023-05-19T03:50:41.764Z,590.00
2023-05-19T03:51:41.842Z,598.00
2023-05-19T03:52:41.920Z,590.00
2023-05-19T03:53:42.002Z,589.00
2023-05-19T03:54:42.077Z,595.00
2023-05-19T03:55:42.169Z,595.00
2023-05-19T03:56:42.250Z,591.00
2023-05-19T03:57:42.333Z,591.00
2023-05-19T03:58:42.412Z,591.00
2023-05-19T03:59:42.497Z,588.00
2023-05-19T04:00:42.564Z,591.00
2023-05-19T04:01:42.649Z,584.00
2023-05-19T04:02:42.873Z,591.00
2023-05-19T04:03:42.852Z,586.00
2023-05-19T04:04:42.930Z,595.00
2023-05-19T04:05:42.979Z,601.00
2023-05-19T04:06:43.071Z,589.00
2023-05-19T04:07:43.151Z,592.00
2023-05-19T04:08:43.232Z,589.00
2023-05-19T04:09:43.322Z,593.00
2023-05-19T04:10:43.402Z,592.00
2023-05-19T04:11:43.501Z,591.00
2023-05-19T04:12:43.581Z,593.00
2023-05-19T04:13:45.088Z,590.00
2023-05-19T04:14:43.748Z,593.00
2023-05-19T04:15:44.602Z,587.00
2023-05-19T04:16:43.896Z,589.00
2023-05-19T04:17:44.024Z,592.00
2023-05-19T04:18:44.078Z,588.00
2023-05-19T04:19:44.155Z,593.00
2023-05-19T04:20:44.246Z,586.00
2023-05-19T04:21:44.325Z,593.00
2023-05-19T04:22:44.413Z,594.00
2023-05-19T04:23:44.488Z,598.00
2023-05-19T04:24:44.581Z,589.00
2023-05-19T04:25:44.662Z,589.00
2023-05-19T04:26:44.739Z,590.00
2023-05-19T04:27:44.834Z,592.00
2023-05-19T04:28:44.912Z,594.00
2023-05-19T04:29:45.007Z,587.00
2023-05-19T04:30:45.095Z,594.00
2023-05-19T04:31:45.240Z,592.00
2023-05-19T04:32:45.290Z,591.00
2023-05-19T04:33:45.342Z,591.00
2023-05-19T04:34:45.434Z,590.00
2023-05-19T04:35:45.534Z,586.00
2023-05-19T04:36:45.605Z,593.00
2023-05-19T04:37:45.692Z,589.00
2023-05-19T04:38:45.795Z,587.00
2023-05-19T04:39:45.858Z,595.00
2023-05-19T04:40:45.942Z,590.00
2023-05-19T04:41:46.045Z,591.00
2023-05-19T04:42:46.218Z,591.00
2023-05-19T04:43:46.214Z,587.00
2023-05-19T04:44:46.292Z,592.00
2023-05-19T04:45:46.384Z,592.00
2023-05-19T04:46:46.500Z,589.00
2023-05-19T04:47:46.608Z,592.00
2023-05-19T04:48:46.637Z,591.00
2023-05-19T04:49:46.733Z,585.00
2023-05-19T04:50:46.818Z,584.00
2023-05-19T04:51:46.900Z,587.00
2023-05-19T04:52:46.977Z,591.00
2023-05-19T04:53:47.103Z,588.00
2023-05-19T04:54:47.158Z,591.00
2023-05-19T04:55:47.235Z,586.00
2023-05-19T04:56:47.324Z,587.00
2023-05-19T04:57:47.410Z,585.00
2023-05-19T04:58:47.507Z,593.00
2023-05-19T04:59:47.579Z,588.00
2023-05-19T05:00:47.664Z,588.00
2023-05-19T05:01:47.786Z,588.00
2023-05-19T05:02:47.932Z,584.00
2023-05-19T05:03:47.971Z,588.00
2023-05-19T05:04:48.016Z,589.00
2023-05-19T05:05:48.109Z,587.00
2023-05-19T05:06:48.195Z,591.00
2023-05-19T05:07:48.278Z,590.00
2023-05-19T05:08:48.368Z,589.00
2023-05-19T05:09:48.450Z,593.00
2023-05-19T05:10:48.534Z,582.00
2023-05-19T05:11:48.643Z,586.00
2023-05-19T05:12:48.708Z,592.00
2023-05-19T05:13:48.814Z,589.00
2023-05-19T05:14:48.885Z,592.00
2023-05-19T05:15:48.989Z,592.00
2023-05-19T05:16:49.124Z,587.00
2023-05-19T05:17:49.182Z,587.00
2023-05-19T05:18:49.257Z,590.00
2023-05-19T05:19:49.329Z,585.00
2023-05-19T05:20:49.415Z,593.00
2023-05-19T05:21:49.505Z,589.00
2023-05-19T05:22:49.589Z,592.00
2023-05-19T05:23:49.676Z,581.00
2023-05-19T05:24:49.769Z,587.00
2023-05-19T05:25:49.869Z,587.00
2023-05-19T05:26:49.951Z,585.00
2023-05-19T05:27:50.022Z,589.00
2023-05-19T05:28:50.110Z,589.00
2023-05-19T05:29:51.567Z,587.00
2023-05-19T05:30:50.277Z,584.00
2023-05-19T05:31:50.381Z,585.00
2023-05-19T05:32:50.589Z,594.00
2023-05-19T05:33:50.542Z,588.00
2023-05-19T05:34:50.646Z,584.00
2023-05-19T05:35:50.727Z,585.00
2023-05-19T05:36:50.819Z,585.00
2023-05-19T05:37:50.902Z,584.00
2023-05-19T05:38:50.982Z,589.00
2023-05-19T05:39:51.085Z,584.00
2023-05-19T05:40:51.154Z,583.00
2023-05-19T05:41:51.284Z,584.00
2023-05-19T05:42:51.334Z,592.00
2023-05-19T05:43:51.417Z,583.00
2023-05-19T05:44:51.497Z,583.00
2023-05-19T05:45:51.650Z,587.00
2023-05-19T05:46:51.677Z,589.00
2023-05-19T05:47:51.793Z,586.00
2023-05-19T05:48:51.849Z,583.00
2023-05-19T05:49:53.574Z,586.00
2023-05-19T05:50:52.054Z,587.00
2023-05-19T05:52:05.161Z,588.00
2023-05-19T05:52:53.122Z,588.00
2023-05-19T05:53:52.145Z,588.00
2023-05-19T05:54:52.168Z,589.00
2023-05-19T05:55:52.184Z,589.00
2023-05-19T05:56:52.209Z,587.00
2023-05-19T05:57:52.221Z,585.00
2023-05-19T05:58:52.328Z,590.00
2023-05-19T05:59:52.272Z,586.00
2023-05-19T06:00:52.291Z,584.00
2023-05-19T06:01:52.321Z,583.00
2023-05-19T06:02:52.457Z,587.00
2023-05-19T06:03:52.493Z,589.00
2023-05-19T06:04:52.537Z,585.00
2023-05-19T06:05:52.694Z,586.00
2023-05-19T06:06:52.713Z,590.00
2023-05-19T06:07:52.799Z,584.00
2023-05-19T06:08:52.912Z,589.00
2023-05-19T06:09:52.961Z,586.00
2023-05-19T06:10:53.051Z,581.00
2023-05-19T06:11:53.137Z,585.00
2023-05-19T06:12:53.218Z,590.00
2023-05-19T06:13:53.301Z,590.00
2023-05-19T06:14:53.401Z,590.00
2023-05-19T06:15:53.511Z,586.00
2023-05-19T06:16:53.571Z,589.00
2023-05-19T06:17:53.652Z,584.00
2023-05-19T06:18:53.745Z,584.00
2023-05-19T06:19:53.823Z,584.00
2023-05-19T06:20:53.904Z,580.00
2023-05-19T06:21:53.991Z,582.00
2023-05-19T06:22:54.077Z,581.00
2023-05-19T06:23:54.165Z,584.00
2023-05-19T06:24:54.245Z,582.00
2023-05-19T06:25:54.345Z,585.00
2023-05-19T06:26:54.430Z,584.00
2023-05-19T06:27:54.503Z,583.00
2023-05-19T06:28:54.585Z,586.00
2023-05-19T06:29:54.686Z,584.00
2023-05-19T06:30:54.757Z,583.00
2023-05-19T06:31:54.920Z,586.00
2023-05-19T06:32:54.938Z,581.00
2023-05-19T06:33:55.013Z,580.00
2023-05-19T06:34:55.102Z,583.00
2023-05-19T06:35:55.184Z,581.00
2023-05-19T06:36:55.281Z,582.00
2023-05-19T06:37:55.330Z,583.00
2023-05-19T06:38:55.400Z,583.00
2023-05-19T06:39:55.476Z,584.00
2023-05-19T06:40:55.539Z,583.00
2023-05-19T06:41:55.634Z,576.00
2023-05-19T06:42:55.714Z,583.00
2023-05-19T06:43:55.784Z,574.00
2023-05-19T06:44:55.916Z,584.00
2023-05-19T06:45:55.972Z,578.00
2023-05-19T06:46:56.066Z,580.00
2023-05-19T06:47:56.140Z,577.00
2023-05-19T06:48:56.208Z,580.00
2023-05-19T06:49:56.973Z,576.00
2023-05-19T06:50:56.379Z,577.00
2023-05-19T06:51:56.454Z,580.00
2023-05-19T06:52:56.560Z,582.00
2023-05-19T06:53:56.640Z,574.00
2023-05-19T06:54:56.695Z,580.00
2023-05-19T06:55:59.992Z,580.00
2023-05-19T06:56:56.798Z,583.00
2023-05-19T06:57:56.825Z,585.00
2023-05-19T06:58:56.847Z,578.00
2023-05-19T06:59:56.849Z,578.00
2023-05-19T07:00:56.898Z,577.00
2023-05-19T07:01:56.940Z,585.00
2023-05-19T07:02:57.018Z,577.00
2023-05-19T07:03:57.027Z,579.00
2023-05-19T07:04:56.956Z,575.00
2023-05-19T07:05:56.978Z,580.00
2023-05-19T07:06:57.004Z,577.00
2023-05-19T07:07:57.015Z,577.00
2023-05-19T07:08:57.056Z,580.00
2023-05-19T07:09:57.070Z,580.00
2023-05-19T07:10:57.087Z,575.00
2023-05-19T07:11:57.108Z,578.00
2023-05-19T07:12:57.133Z,574.00
2023-05-19T07:13:57.150Z,582.00
2023-05-19T07:14:57.198Z,577.00
2023-05-19T07:15:57.204Z,580.00
2023-05-19T07:16:57.204Z,577.00
2023-05-19T07:17:57.296Z,578.00
2023-05-19T07:18:57.288Z,579.00
2023-05-19T07:19:57.272Z,582.00
2023-05-19T07:20:57.289Z,579.00
2023-05-19T07:21:57.308Z,580.00
2023-05-19T07:22:57.318Z,579.00
2023-05-19T07:23:57.347Z,575.00
2023-05-19T07:24:57.356Z,575.00
2023-05-19T07:25:57.403Z,573.00
2023-05-19T07:26:57.465Z,574.00
2023-05-19T07:27:57.536Z,578.00
2023-05-19T07:28:57.621Z,572.00
2023-05-19T07:29:57.689Z,575.00
2023-05-19T07:30:57.779Z,574.00
2023-05-19T07:31:58.088Z,567.00
2023-05-19T07:32:57.948Z,571.00
2023-05-19T07:33:58.004Z,570.00
2023-05-19T07:34:58.077Z,569.00
2023-05-19T07:35:58.140Z,574.00
2023-05-19T07:36:58.217Z,568.00
2023-05-19T07:37:58.285Z,569.00
2023-05-19T07:38:58.404Z,575.00
2023-05-19T07:39:58.439Z,568.00
2023-05-19T07:40:58.514Z,572.00
2023-05-19T07:41:58.585Z,571.00
2023-05-19T07:42:58.665Z,563.00
2023-05-19T07:43:58.737Z,568.00
2023-05-19T07:44:58.817Z,567.00
2023-05-19T07:45:58.972Z,570.00
2023-05-19T07:46:58.978Z,573.00
2023-05-19T07:47:59.090Z,569.00
2023-05-19T07:48:59.123Z,573.00
2023-05-19T07:49:59.198Z,576.00
2023-05-19T07:50:59.284Z,567.00
2023-05-19T07:51:59.361Z,567.00
2023-05-19T07:52:59.447Z,564.00
2023-05-19T07:53:59.570Z,566.00
2023-05-19T07:54:59.579Z,574.00
2023-05-19T07:55:59.644Z,571.00
2023-05-19T07:56:59.729Z,568.00
2023-05-19T07:57:59.872Z,569.00
2023-05-19T07:58:59.868Z,566.00
2023-05-19T07:59:59.942Z,564.00
2023-05-19T08:01:00.019Z,568.00
2023-05-19T08:02:00.158Z,569.00
2023-05-19T08:03:00.291Z,566.00
2023-05-19T08:04:00.315Z,566.00
2023-05-19T08:05:00.301Z,569.00
2023-05-19T08:06:00.424Z,565.00
2023-05-19T08:07:00.451Z,566.00
2023-05-19T08:08:00.519Z,565.00
2023-05-19T08:09:00.579Z,559.00
2023-05-19T08:10:00.659Z,562.00
2023-05-19T08:11:00.720Z,566.00
2023-05-19T08:12:00.781Z,564.00
2023-05-19T08:13:00.848Z,565.00
2023-05-19T08:14:00.906Z,564.00
2023-05-19T08:15:01.603Z,564.00
2023-05-19T08:16:01.128Z,564.00
2023-05-19T08:17:01.128Z,561.00
2023-05-19T08:18:01.206Z,564.00
2023-05-19T08:19:01.296Z,565.00
2023-05-19T08:20:01.313Z,564.00
2023-05-19T08:21:01.387Z,563.00
2023-05-19T08:22:01.612Z,561.00
2023-05-19T08:23:01.516Z,561.00
2023-05-19T08:24:01.596Z,563.00
2023-05-19T08:25:01.658Z,555.00
2023-05-19T08:26:01.714Z,560.00
2023-05-19T08:27:01.774Z,559.00
2023-05-19T08:28:01.843Z,558.00
2023-05-19T08:29:01.898Z,556.00
2023-05-19T08:30:01.967Z,561.00
2023-05-19T08:31:02.067Z,557.00
2023-05-19T08:32:02.086Z,555.00
2023-05-19T08:33:02.213Z,557.00
2023-05-19T08:34:02.219Z,561.00
2023-05-19T08:35:02.262Z,555.00
2023-05-19T08:36:02.322Z,555.00
2023-05-19T08:37:02.385Z,555.00
2023-05-19T08:38:02.440Z,560.00
2023-05-19T08:39:02.513Z,552.00
2023-05-19T08:40:02.565Z,555.00
2023-05-19T08:41:02.612Z,550.00
2023-05-19T08:42:02.694Z,555.00
2023-05-19T08:43:02.745Z,552.00
2023-05-19T08:44:02.777Z,556.00
2023-05-19T08:45:02.851Z,550.00
2023-05-19T08:46:02.892Z,554.00
2023-05-19T08:47:03.132Z,551.00
2023-05-19T08:48:03.125Z,547.00
2023-05-19T08:49:03.123Z,546.00
2023-05-19T08:50:03.101Z,548.00
2023-05-19T08:51:03.167Z,544.00
2023-05-19T08:52:03.216Z,542.00
2023-05-19T08:53:03.259Z,549.00
2023-05-19T08:54:03.318Z,543.00
2023-05-19T08:55:03.349Z,544.00
2023-05-19T08:56:03.415Z,549.00
2023-05-19T08:57:03.454Z,547.00
2023-05-19T08:58:03.507Z,538.00
2023-05-19T08:59:03.732Z,547.00
2023-05-19T09:00:03.593Z,547.00
2023-05-19T09:01:03.665Z,546.00
2023-05-19T09:02:03.687Z,540.00
2023-05-19T09:04:03.882Z,544.00
2023-05-19T09:05:03.895Z,541.00
2023-05-19T09:06:03.962Z,545.00
2023-05-19T09:07:04.000Z,546.00
2023-05-19T09:08:04.007Z,538.00
2023-05-19T09:09:04.049Z,543.00
2023-05-19T09:10:04.112Z,544.00
2023-05-19T09:11:04.144Z,546.00
2023-05-19T09:12:04.181Z,546.00
2023-05-19T09:13:04.218Z,546.00
2023-05-19T09:14:04.254Z,541.00
2023-05-19T09:15:04.308Z,544.00
2023-05-19T09:16:04.441Z,542.00
2023-05-19T09:17:04.459Z,542.00
2023-05-19T09:18:04.468Z,546.00
2023-05-19T09:19:04.491Z,551.00
2023-05-19T09:20:04.513Z,545.00
2023-05-19T09:21:04.540Z,541.00
2023-05-19T09:22:04.572Z,546.00
2023-05-19T09:23:04.615Z,546.00
2023-05-19T09:24:04.644Z,543.00
2023-05-19T09:25:04.673Z,545.00
2023-05-19T09:26:04.712Z,544.00
2023-05-19T09:27:04.755Z,543.00
2023-05-19T09:28:04.788Z,542.00
2023-05-19T09:29:04.818Z,541.00
2023-05-19T09:30:04.860Z,544.00
2023-05-19T09:31:04.933Z,541.00
2023-05-19T09:32:04.947Z,545.00
2023-05-19T09:33:05.013Z,543.00
2023-05-19T09:34:04.991Z,542.00
2023-05-19T09:35:05.023Z,545.00
2023-05-19T09:36:05.064Z,545.00
2023-05-19T09:37:05.101Z,544.00
2023-05-19T09:38:05.132Z,546.00
2023-05-19T09:39:05.182Z,542.00
2023-05-19T09:40:05.226Z,543.00
2023-05-19T09:41:05.244Z,548.00
2023-05-19T09:42:05.303Z,542.00
2023-05-19T09:43:05.312Z,544.00
2023-05-19T09:44:05.355Z,542.00
2023-05-19T09:45:05.369Z,546.00
2023-05-19T09:46:05.469Z,539.00
2023-05-19T09:47:05.433Z,547.00
2023-05-19T09:48:05.520Z,548.00
2023-05-19T09:49:05.482Z,542.00
2023-05-19T09:50:05.520Z,541.00
2023-05-19T09:51:05.547Z,540.00
2023-05-19T09:52:05.576Z,546.00
2023-05-19T09:53:05.616Z,542.00
2023-05-19T09:54:05.641Z,545.00
2023-05-19T09:55:05.669Z,541.00
2023-05-19T09:56:05.706Z,543.00
2023-05-19T09:57:07.771Z,541.00
2023-05-19T09:58:06.006Z,543.00
2023-05-19T09:59:06.045Z,549.00
2023-05-19T10:00:06.085Z,542.00
2023-05-19T10:01:06.247Z,539.00
2023-05-19T10:02:06.155Z,550.00
2023-05-19T10:03:06.269Z,548.00
2023-05-19T10:04:06.307Z,547.00
2023-05-19T10:05:06.371Z,543.00
2023-05-19T10:06:06.279Z,543.00
2023-05-19T10:07:06.327Z,543.00
2023-05-19T10:08:06.348Z,544.00
2023-05-19T10:09:07.254Z,542.00
2023-05-19T10:10:06.420Z,543.00
2023-05-19T10:11:06.457Z,542.00
2023-05-19T10:12:06.487Z,551.00
2023-05-19T10:13:06.535Z,549.00
2023-05-19T10:14:06.548Z,547.00
2023-05-19T10:15:06.589Z,546.00
2023-05-19T10:16:06.655Z,547.00
2023-05-19T10:17:06.681Z,546.00
2023-05-19T10:18:06.697Z,543.00
2023-05-19T10:19:06.756Z,547.00
2023-05-19T10:20:06.779Z,547.00
2023-05-19T10:21:06.787Z,544.00
2023-05-19T10:22:06.828Z,544.00
2023-05-19T10:23:07.760Z,543.00
2023-05-19T10:24:06.889Z,550.00
2023-05-19T10:25:06.934Z,547.00
2023-05-19T10:26:06.955Z,548.00
2023-05-19T10:27:06.996Z,546.00
2023-05-19T10:28:07.026Z,548.00
2023-05-19T10:29:07.056Z,545.00
2023-05-19T10:30:08.779Z,547.00
2023-05-19T10:31:07.150Z,548.00
2023-05-19T10:32:07.227Z,546.00
2023-05-19T10:33:07.237Z,543.00
2023-05-19T10:34:07.302Z,545.00
2023-05-19T10:35:07.297Z,550.00
2023-05-19T10:36:07.293Z,544.00
2023-05-19T10:37:07.425Z,549.00
2023-05-19T10:38:07.421Z,546.00
2023-05-19T10:39:07.421Z,548.00
2023-05-19T10:40:07.433Z,549.00
2023-05-19T10:41:07.463Z,548.00
2023-05-19T10:42:07.501Z,551.00
2023-05-19T10:43:07.531Z,548.00
2023-05-19T10:44:07.562Z,552.00
2023-05-19T10:45:07.594Z,551.00
2023-05-19T10:46:07.625Z,547.00
2023-05-19T10:47:07.821Z,544.00
2023-05-19T10:48:07.793Z,545.00
2023-05-19T10:49:07.734Z,547.00
2023-05-19T10:50:07.772Z,553.00
2023-05-19T10:51:07.818Z,554.00
2023-05-19T10:52:07.846Z,549.00
2023-05-19T10:53:07.884Z,549.00
2023-05-19T10:54:07.908Z,549.00
2023-05-19T10:55:07.952Z,553.00
2023-05-19T10:56:07.993Z,548.00
2023-05-19T10:57:08.035Z,552.00
2023-05-19T10:58:08.066Z,552.00
2023-05-19T10:59:08.094Z,547.00
2023-05-19T11:00:08.136Z,545.00
2023-05-19T11:01:08.203Z,547.00
2023-05-19T11:02:08.409Z,547.00
2023-05-19T11:03:08.303Z,548.00
2023-05-19T11:04:08.313Z,544.00
2023-05-19T11:05:08.296Z,548.00
2023-05-19T11:06:08.331Z,547.00
2023-05-19T11:07:08.357Z,548.00
2023-05-19T11:08:08.389Z,552.00
2023-05-19T11:09:08.426Z,549.00
2023-05-19T11:10:08.488Z,554.00
2023-05-19T11:11:08.496Z,556.00
2023-05-19T11:12:08.534Z,555.00
2023-05-19T11:13:08.573Z,553.00
2023-05-19T11:14:08.601Z,554.00
2023-05-19T11:15:08.633Z,558.00
2023-05-19T11:16:08.691Z,555.00
2023-05-19T11:17:08.737Z,552.00
2023-05-19T11:18:08.755Z,550.00
2023-05-19T11:19:08.786Z,551.00
2023-05-19T11:20:08.809Z,551.00
2023-05-19T11:21:08.865Z,553.00
2023-05-19T11:22:08.904Z,551.00
2023-05-19T11:23:08.960Z,553.00
2023-05-19T11:24:08.967Z,548.00
2023-05-19T11:25:09.016Z,550.00
2023-05-19T11:26:09.028Z,554.00
2023-05-19T11:27:09.068Z,546.00
2023-05-19T11:28:09.101Z,553.00
2023-05-19T11:29:09.142Z,547.00
2023-05-19T11:30:09.192Z,548.00
2023-05-19T11:31:09.244Z,550.00
2023-05-19T11:32:09.350Z,555.00
2023-05-19T11:33:09.344Z,549.00
2023-05-19T11:34:09.346Z,552.00
2023-05-19T11:35:09.379Z,551.00
2023-05-19T11:36:09.428Z,552.00
2023-05-19T11:37:09.455Z,547.00
2023-05-19T11:38:09.496Z,549.00
2023-05-19T11:39:09.529Z,550.00
2023-05-19T11:40:09.652Z,550.00
2023-05-19T11:41:09.610Z,549.00
2023-05-19T11:42:09.660Z,555.00
2023-05-19T11:43:09.685Z,550.00
2023-05-19T11:44:09.722Z,551.00
2023-05-19T11:45:09.752Z,554.00
2023-05-19T11:46:09.866Z,550.00
2023-05-19T11:47:09.843Z,550.00
2023-05-19T11:48:09.885Z,552.00
2023-05-19T11:49:09.935Z,553.00
2023-05-19T11:50:09.969Z,554.00
2023-05-19T11:51:09.996Z,551.00
2023-05-19T11:52:10.023Z,554.00
2023-05-19T11:53:10.058Z,553.00
2023-05-19T11:54:10.095Z,553.00
2023-05-19T11:55:10.161Z,549.00
2023-05-19T11:56:10.179Z,552.00
2023-05-19T11:57:10.216Z,550.00
2023-05-19T11:58:10.249Z,555.00
2023-05-19T11:59:10.297Z,553.00
2023-05-19T12:00:10.331Z,554.00
2023-05-19T12:01:10.378Z,554.00
2023-05-19T12:02:10.424Z,548.00
2023-05-19T12:03:10.648Z,555.00
2023-05-19T12:04:10.499Z,556.00
2023-05-19T12:05:10.561Z,550.00
2023-05-19T12:06:10.603Z,551.00
2023-05-19T12:07:10.603Z,548.00
2023-05-19T12:08:10.672Z,556.00
2023-05-19T12:09:10.674Z,552.00
2023-05-19T12:10:10.793Z,555.00
2023-05-19T12:11:10.750Z,552.00
2023-05-19T12:12:10.794Z,552.00
2023-05-19T12:13:11.125Z,552.00
2023-05-19T12:14:10.867Z,555.00
2023-05-19T12:15:10.918Z,553.00
2023-05-19T12:16:11.044Z,551.00
2023-05-19T12:17:10.998Z,551.00
2023-05-19T12:18:11.081Z,552.00
2023-05-19T12:19:11.074Z,552.00
2023-05-19T12:20:11.131Z,558.00
2023-05-19T12:21:11.153Z,553.00
2023-05-19T12:22:11.194Z,553.00
2023-05-19T12:23:11.237Z,550.00
2023-05-19T12:24:11.274Z,551.00
2023-05-19T12:25:11.311Z,551.00
2023-05-19T12:26:11.352Z,551.00
2023-05-19T12:27:11.409Z,552.00
2023-05-19T12:28:11.445Z,551.00
2023-05-19T12:29:11.492Z,553.00
2023-05-19T12:30:11.527Z,552.00